Nearby METAR Reports

 

GCLP - Las Palmas/Gando, Spain
Distance from station: NE 26km
Updated: 18/08/2019 00:30
Clear
Clear
 Wind from N
Wind: N 35 km/h
Temperature: 29°C
Dew Point: 13°C
Humidity: 37%
Barometer: 1013 hPa
Summary: Clear
Visibility: greater than 10 km
2019/08/18 00:30 GCLP 180030Z 36019KT CAVOK 29/13 Q1013 NOSIG
GCTS - Tenerife Sur/Rei, Spain
Distance from station: WNW 102km
Updated: 18/08/2019 00:30
Clear
Clear
 Wind from ENE
Wind: ENE 48 km/h
Temperature: 27°C
Heat Index: 27°C
Dew Point: 14°C
Humidity: 45%
Barometer: 1012 hPa
Summary: Clear
Visibility: greater than 10 km
2019/08/18 00:30 GCTS 180030Z 06026KT CAVOK 27/14 Q1012 WS R07 NOSIG
 
GCXO - Tenerife/Los Rod, Spain
Distance from station: NW 110km
Updated: 18/08/2019 00:30
Clear
Clear
 Wind from SSE
Wind: SSE 7 km/h
Temperature: 27°C
Dew Point: 8°C
Humidity: 30%
Barometer: 1018 hPa
Clouds: Clear
Visibility: 10 km
2019/08/18 00:30 GCXO 180030Z AUTO 15004KT 100V190 9999 NCD 27/08 Q1018
GCGM - La Gomera Arpt, Spain
Distance from station: W 164km
Updated: 18/08/2019 00:30
Clear
Clear
 Wind from WSW
Wind: WSW 6 km/h
Temperature: 28°C
Heat Index: 27°C
Dew Point: 13°C
Humidity: 40%
Barometer: 1012 hPa
Clouds: Clear
Visibility: 10 km
2019/08/18 00:30 GCGM 180030Z AUTO 24003KT 210V280 9999 NCD 28/13 Q1012 RMK R09/VRB01KT ARP/27001KT
 
GCFV - Fuerteventura Ar, Spain
Distance from station: ENE 183km
Updated: 18/08/2019 00:30
Clear
Clear
 Wind from NNE
Wind: NNE 22 km/h
Temperature: 23°C
Dew Point: 20°C
Humidity: 83%
Barometer: 1014 hPa
Clouds: Clear
Visibility: 8 km
2019/08/18 00:30 GCFV 180030Z AUTO 03012KT 8000 NCD 23/20 Q1014
GCHI - Hierro Airport, Spain
Distance from station: W 226km
Updated: 18/08/2019 00:30
Overcast
Overcast
 Wind from NNW
Wind: NNW 44 km/h, Gust: 65 km/h
Temperature: 23°C
Dew Point: 21°C
Humidity: 89%
Barometer: 1014 hPa
Clouds: Overcast
Visibility: 10 km
Cloud details: Overcast 305 m
2019/08/18 00:30 GCHI 180030Z AUTO 34024G35KT 9999 OVC010 23/21 Q1014
 
GCLA - La Palma Airport, Spain
Distance from station: WNW 233km
Updated: 18/08/2019 00:30
Clear
Clear
 Wind from NNE
Wind: NNE 26 km/h
Temperature: 23°C
Dew Point: 21°C
Humidity: 89%
Barometer: 1016 hPa
Clouds: Clear
Visibility: 10 km
2019/08/18 00:30 GCLA 180030Z AUTO 02014KT 9999 NCD 23/21 Q1016
GCRR - Arrecife/Lanzaro, Spain
Distance from station: NE 234km
Updated: 18/08/2019 00:30
Clear
Clear
 Wind from N
Wind: N 26 km/h
Temperature: 24°C
Dew Point: 19°C
Humidity: 74%
Barometer: 1013 hPa
Clouds: Clear
Visibility: 10 km
2019/08/18 00:30 GCRR 180030Z AUTO 01014KT 9999 NCD 24/19 Q1013
 
LPMA - Funchal/Madeira, Portugal
Distance from station: NNW 556km
Updated: 18/08/2019 00:30
Few Clouds
Few Clouds
 Wind from NNE
Wind: NNE 26 km/h
Temperature: 22°C
Dew Point: 17°C
Humidity: 73%
Barometer: 1018 hPa
Clouds: Few Clouds
Visibility: 10 km
Cloud details: Few Clouds 457 m
2019/08/18 00:30 LPMA 180030Z 03014KT 350V060 9999 FEW015 22/17 Q1018
LPPS - Porto Santo Isla, Portugal
Distance from station: N 594km
Updated: 18/08/2019 00:30
Partly cloudy
Partly cloudy
 Wind from NNE
Wind: NNE 19 km/h
Temperature: 22°C
Dew Point: 18°C
Humidity: 78%
Barometer: 1019 hPa
Clouds: Partly cloudy
Visibility: 10 km
Cloud details: Partly cloudy 457 m
2019/08/18 00:30 LPPS 180030Z 03010KT 360V080 9999 SCT015 22/18 Q1019